მოწმენდილი, რამდენიმე ფრთა-ღრუბლით
მოწმენდილი, უღრუბლო ცა
მოწმენდილი, უღრუბლო ცა
მოწმენდილი, უღრუბლო ცა
მოწმენდილი, უღრუბლო ცა
მოწმენდილი, უღრუბლო ცა
მოწმენდილი, უღრუბლო ცა
(°C)
22°
22°
22°
22°
22°
22°
21°
21°
19°
19°
17°
17°
15°
15°
(°C)
19°
19°
18°
17°
16°
14°
12°
ასა
ასა
ასა
ასა
აღმ.
აღმ.
აღმ.
(km/h)
9-19
8-18
8-17
8-16
7-15
7-12
7-11
(მმ)
0
0
0
0
0
0
0
(%)
0
0
0
0
0
0
0

მზის სიმაღლე

/ 46.1°
sun-icon
UV 6
04:13
20:26
კლებადი მთვარე (204°)
23:15
04:43

METAR 51.82°ჩრ. 39.23°აღმ. (UUOO)-თვის

დრო პირობები ტემპერატურა/
ნამი
ქარი ხილვადობა ამინდი ღრუბლები წნევა ცვლილება დაუმუშავებელი
VFR 22°C / -2°C 190º variable 120º to 260º 6kt 9700m - Clouds and Visibility OK 1029 No Significant change. Runway 12: Clear and dry, 1-10% contamination with <1mm, friction coefficient 0.70. UUOO 251130Z 19003MPS 120V260 CAVOK 22/M02 Q1029 R12/010070 NOSIG RMK QFE758
VFR 22°C / -3°C 150º 6kt 9700m - Clouds and Visibility OK 1029 No Significant change. Runway 12: Clear and dry, 1-10% contamination with <1mm, friction coefficient 0.70. UUOO 251100Z 15003MPS CAVOK 22/M03 Q1029 R12/010070 NOSIG RMK QFE758
VFR 21°C / -2°C 190º variable 080º to 250º 4kt 9700m - Clouds and Visibility OK 1030 No Significant change. Runway 12: Clear and dry, 1-10% contamination with <1mm, friction coefficient 0.70. UUOO 251030Z 19002MPS 080V250 CAVOK 21/M02 Q1030 R12/010070 NOSIG RMK QFE758
VFR 22°C / -2°C 140º variable 090º to 230º 4kt 9700m - Clouds and Visibility OK 1030 No Significant change. Runway 12: Clear and dry, 1-10% contamination with <1mm, friction coefficient 0.70. UUOO 251000Z 14002MPS 090V230 CAVOK 22/M02 Q1030 R12/010070 NOSIG RMK QFE758
VFR 21°C / -2°C 160º variable 120º to 210º 8kt 9700m - Clouds and Visibility OK 1030 No Significant change. Runway 12: Clear and dry, 1-10% contamination with <1mm, friction coefficient 0.70. UUOO 250930Z 16004MPS 120V210 CAVOK 21/M02 Q1030 R12/010070 NOSIG RMK QFE758
VFR 21°C / 0°C 150º variable 100º to 180º 8kt 9700m - Clouds and Visibility OK 1031 No Significant change. Runway 12: Clear and dry, 1-10% contamination with <1mm, friction coefficient 0.70. UUOO 250900Z 15004MPS 100V180 CAVOK 21/M00 Q1031 R12/010070 NOSIG RMK QFE759
VFR 20°C / -3°C 140º variable 100º to 180º 8kt 9700m - Clouds and Visibility OK 1031 No Significant change. Runway 12: Clear and dry, 1-10% contamination with <1mm, friction coefficient 0.70. UUOO 250830Z 14004MPS 100V180 CAVOK 20/M03 Q1031 R12/010070 NOSIG RMK QFE759
VFR 20°C / -4°C 160º variable 090º to 200º 6kt 9700m - Clouds and Visibility OK 1031 No Significant change. Runway 12: Clear and dry, 1-10% contamination with <1mm, friction coefficient 0.70. UUOO 250800Z 16003MPS 090V200 CAVOK 20/M04 Q1031 R12/010070 NOSIG RMK QFE759
VFR 19°C / -2°C 140º 6kt 9700m - Clouds and Visibility OK 1031 No Significant change. Runway 12: Clear and dry, 1-10% contamination with <1mm, friction coefficient 0.70. UUOO 250730Z 14003MPS CAVOK 19/M02 Q1031 R12/010070 NOSIG RMK QFE759
VFR 19°C / -2°C 130º variable 080º to 160º 4kt 9700m - Clouds and Visibility OK 1032 No Significant change. Runway 12: Clear and dry, 1-10% contamination with <1mm, friction coefficient 0.70. UUOO 250700Z 13002MPS 080V160 CAVOK 19/M02 Q1032 R12/010070 NOSIG RMK QFE759
VFR 18°C / -2°C 160º variable 120º to 210º 4kt 9700m - Clouds and Visibility OK 1032 No Significant change. Runway 12: Clear and dry, 1-10% contamination with <1mm, friction coefficient 0.70. UUOO 250630Z 16002MPS 120V210 CAVOK 18/M02 Q1032 R12/010070 NOSIG RMK QFE760
VFR 18°C / 1°C 140º variable 080º to 190º 4kt 9700m - Clouds and Visibility OK 1032 No Significant change. Runway 12: Clear and dry, 1-10% contamination with <1mm, friction coefficient 0.70. UUOO 250600Z 14002MPS 080V190 CAVOK 18/01 Q1032 R12/010070 NOSIG RMK QFE760
VFR 17°C / 2°C 120º 4kt 9700m - Clouds and Visibility OK 1032 No Significant change. Runway 12: Clear and dry, 1-10% contamination with <1mm, friction coefficient 0.70. UUOO 250530Z 12002MPS CAVOK 17/02 Q1032 R12/010070 NOSIG RMK QFE760
VFR 16°C / 2°C 150º 4kt 9700m - Clouds and Visibility OK 1032 No Significant change. Runway 12: Clear and dry, 1-10% contamination with <1mm, friction coefficient 0.70. UUOO 250500Z 15002MPS CAVOK 16/02 Q1032 R12/010070 NOSIG RMK QFE760
VFR 15°C / 1°C 140º 2kt 9700m - Clouds and Visibility OK 1032 No Significant change. Runway 12: Clear and dry, 1-10% contamination with <1mm, friction coefficient 0.70. UUOO 250430Z 14001MPS CAVOK 15/01 Q1032 R12/010070 NOSIG RMK QFE760
VFR 13°C / 0°C 120º 4kt 9700m - Clouds and Visibility OK 1032 No Significant change. Runway 12: Clear and dry, 1-10% contamination with <1mm, friction coefficient 0.70. UUOO 250400Z 12002MPS CAVOK 13/00 Q1032 R12/010070 NOSIG RMK QFE760
VFR 11°C / 0°C 120º 4kt 9700m - Clouds and Visibility OK 1032 No Significant change. Runway 12: Clear and dry, 1-10% contamination with <1mm, friction coefficient 0.70. UUOO 250330Z 12002MPS CAVOK 11/M00 Q1032 R12/010070 NOSIG RMK QFE760
VFR 9°C / 3°C 130º 4kt 9700m - Clouds and Visibility OK 1032 No Significant change. Runway 12: Clear and dry, 1-10% contamination with <1mm, friction coefficient 0.70. UUOO 250300Z 13002MPS CAVOK 09/03 Q1032 R12/010070 NOSIG RMK QFE760
VFR 7°C / 0°C 120º 2kt 9700m - Clouds and Visibility OK 1032 No Significant change. Runway 12: Clear and dry, 1-10% contamination with <1mm, friction coefficient 0.70. UUOO 250230Z 12001MPS CAVOK 07/00 Q1032 R12/010070 NOSIG RMK QFE759
VFR 5°C / 1°C 140º 2kt 9700m - Clouds and Visibility OK 1032 No Significant change. Runway 12: Clear and dry, 1-10% contamination with <1mm, friction coefficient 0.70. UUOO 250200Z 14001MPS CAVOK 05/01 Q1032 R12/010070 NOSIG RMK QFE759
VFR 4°C / -1°C 130º 2kt 9700m - Clouds and Visibility OK 1031 No Significant change. Runway 12: Clear and dry, 1-10% contamination with <1mm, friction coefficient 0.70. UUOO 250130Z 13001MPS CAVOK 04/M01 Q1031 R12/010070 NOSIG RMK QFE759
VFR 5°C / -1°C 140º 2kt 9700m - Clouds and Visibility OK 1031 No Significant change. Runway 12: Clear and dry, 1-10% contamination with <1mm, friction coefficient 0.70. UUOO 250100Z 14001MPS CAVOK 05/M01 Q1031 R12/010070 NOSIG RMK QFE759
VFR 6°C / 0°C 120º 2kt 9700m - Clouds and Visibility OK 1031 No Significant change. Runway 12: Clear and dry, 1-10% contamination with <1mm, friction coefficient 0.70. UUOO 250030Z 12001MPS CAVOK 06/00 Q1031 R12/010070 NOSIG RMK QFE759
VFR 7°C / -1°C 130º 4kt 9700m - Clouds and Visibility OK 1031 No Significant change. Runway 12: Clear and dry, 1-10% contamination with <1mm, friction coefficient 0.70. UUOO 250000Z 13002MPS CAVOK 07/M01 Q1031 R12/010070 NOSIG RMK QFE759

VFR

22°C / -2°C

[მეტი]
ქარი 190º variable 120º to 260º 6kt
ხილვადობა 9700m
ამინდი -
ღრუბლები Clouds and Visibility OK
წნევა 1029
ცვლილება No Significant change. Runway 12: Clear and dry, 1-10% contamination with <1mm, friction coefficient 0.70.
დაუმუშავებელი UUOO 251130Z 19003MPS 120V260 CAVOK 22/M02 Q1029 R12/010070 NOSIG RMK QFE758

VFR

22°C / -3°C

[მეტი]
ქარი 150º 6kt
ხილვადობა 9700m
ამინდი -
ღრუბლები Clouds and Visibility OK
წნევა 1029
ცვლილება No Significant change. Runway 12: Clear and dry, 1-10% contamination with <1mm, friction coefficient 0.70.
დაუმუშავებელი UUOO 251100Z 15003MPS CAVOK 22/M03 Q1029 R12/010070 NOSIG RMK QFE758

VFR

21°C / -2°C

[მეტი]
ქარი 190º variable 080º to 250º 4kt
ხილვადობა 9700m
ამინდი -
ღრუბლები Clouds and Visibility OK
წნევა 1030
ცვლილება No Significant change. Runway 12: Clear and dry, 1-10% contamination with <1mm, friction coefficient 0.70.
დაუმუშავებელი UUOO 251030Z 19002MPS 080V250 CAVOK 21/M02 Q1030 R12/010070 NOSIG RMK QFE758

VFR

22°C / -2°C

[მეტი]
ქარი 140º variable 090º to 230º 4kt
ხილვადობა 9700m
ამინდი -
ღრუბლები Clouds and Visibility OK
წნევა 1030
ცვლილება No Significant change. Runway 12: Clear and dry, 1-10% contamination with <1mm, friction coefficient 0.70.
დაუმუშავებელი UUOO 251000Z 14002MPS 090V230 CAVOK 22/M02 Q1030 R12/010070 NOSIG RMK QFE758

VFR

21°C / -2°C

[მეტი]
ქარი 160º variable 120º to 210º 8kt
ხილვადობა 9700m
ამინდი -
ღრუბლები Clouds and Visibility OK
წნევა 1030
ცვლილება No Significant change. Runway 12: Clear and dry, 1-10% contamination with <1mm, friction coefficient 0.70.
დაუმუშავებელი UUOO 250930Z 16004MPS 120V210 CAVOK 21/M02 Q1030 R12/010070 NOSIG RMK QFE758

VFR

21°C / 0°C

[მეტი]
ქარი 150º variable 100º to 180º 8kt
ხილვადობა 9700m
ამინდი -
ღრუბლები Clouds and Visibility OK
წნევა 1031
ცვლილება No Significant change. Runway 12: Clear and dry, 1-10% contamination with <1mm, friction coefficient 0.70.
დაუმუშავებელი UUOO 250900Z 15004MPS 100V180 CAVOK 21/M00 Q1031 R12/010070 NOSIG RMK QFE759

VFR

20°C / -3°C

[მეტი]
ქარი 140º variable 100º to 180º 8kt
ხილვადობა 9700m
ამინდი -
ღრუბლები Clouds and Visibility OK
წნევა 1031
ცვლილება No Significant change. Runway 12: Clear and dry, 1-10% contamination with <1mm, friction coefficient 0.70.
დაუმუშავებელი UUOO 250830Z 14004MPS 100V180 CAVOK 20/M03 Q1031 R12/010070 NOSIG RMK QFE759

VFR

20°C / -4°C

[მეტი]
ქარი 160º variable 090º to 200º 6kt
ხილვადობა 9700m
ამინდი -
ღრუბლები Clouds and Visibility OK
წნევა 1031
ცვლილება No Significant change. Runway 12: Clear and dry, 1-10% contamination with <1mm, friction coefficient 0.70.
დაუმუშავებელი UUOO 250800Z 16003MPS 090V200 CAVOK 20/M04 Q1031 R12/010070 NOSIG RMK QFE759

VFR

19°C / -2°C

[მეტი]
ქარი 140º 6kt
ხილვადობა 9700m
ამინდი -
ღრუბლები Clouds and Visibility OK
წნევა 1031
ცვლილება No Significant change. Runway 12: Clear and dry, 1-10% contamination with <1mm, friction coefficient 0.70.
დაუმუშავებელი UUOO 250730Z 14003MPS CAVOK 19/M02 Q1031 R12/010070 NOSIG RMK QFE759

VFR

19°C / -2°C

[მეტი]
ქარი 130º variable 080º to 160º 4kt
ხილვადობა 9700m
ამინდი -
ღრუბლები Clouds and Visibility OK
წნევა 1032
ცვლილება No Significant change. Runway 12: Clear and dry, 1-10% contamination with <1mm, friction coefficient 0.70.
დაუმუშავებელი UUOO 250700Z 13002MPS 080V160 CAVOK 19/M02 Q1032 R12/010070 NOSIG RMK QFE759

VFR

18°C / -2°C

[მეტი]
ქარი 160º variable 120º to 210º 4kt
ხილვადობა 9700m
ამინდი -
ღრუბლები Clouds and Visibility OK
წნევა 1032
ცვლილება No Significant change. Runway 12: Clear and dry, 1-10% contamination with <1mm, friction coefficient 0.70.
დაუმუშავებელი UUOO 250630Z 16002MPS 120V210 CAVOK 18/M02 Q1032 R12/010070 NOSIG RMK QFE760

VFR

18°C / 1°C

[მეტი]
ქარი 140º variable 080º to 190º 4kt
ხილვადობა 9700m
ამინდი -
ღრუბლები Clouds and Visibility OK
წნევა 1032
ცვლილება No Significant change. Runway 12: Clear and dry, 1-10% contamination with <1mm, friction coefficient 0.70.
დაუმუშავებელი UUOO 250600Z 14002MPS 080V190 CAVOK 18/01 Q1032 R12/010070 NOSIG RMK QFE760

VFR

17°C / 2°C

[მეტი]
ქარი 120º 4kt
ხილვადობა 9700m
ამინდი -
ღრუბლები Clouds and Visibility OK
წნევა 1032
ცვლილება No Significant change. Runway 12: Clear and dry, 1-10% contamination with <1mm, friction coefficient 0.70.
დაუმუშავებელი UUOO 250530Z 12002MPS CAVOK 17/02 Q1032 R12/010070 NOSIG RMK QFE760

VFR

16°C / 2°C

[მეტი]
ქარი 150º 4kt
ხილვადობა 9700m
ამინდი -
ღრუბლები Clouds and Visibility OK
წნევა 1032
ცვლილება No Significant change. Runway 12: Clear and dry, 1-10% contamination with <1mm, friction coefficient 0.70.
დაუმუშავებელი UUOO 250500Z 15002MPS CAVOK 16/02 Q1032 R12/010070 NOSIG RMK QFE760

VFR

15°C / 1°C

[მეტი]
ქარი 140º 2kt
ხილვადობა 9700m
ამინდი -
ღრუბლები Clouds and Visibility OK
წნევა 1032
ცვლილება No Significant change. Runway 12: Clear and dry, 1-10% contamination with <1mm, friction coefficient 0.70.
დაუმუშავებელი UUOO 250430Z 14001MPS CAVOK 15/01 Q1032 R12/010070 NOSIG RMK QFE760

VFR

13°C / 0°C

[მეტი]
ქარი 120º 4kt
ხილვადობა 9700m
ამინდი -
ღრუბლები Clouds and Visibility OK
წნევა 1032
ცვლილება No Significant change. Runway 12: Clear and dry, 1-10% contamination with <1mm, friction coefficient 0.70.
დაუმუშავებელი UUOO 250400Z 12002MPS CAVOK 13/00 Q1032 R12/010070 NOSIG RMK QFE760

VFR

11°C / 0°C

[მეტი]
ქარი 120º 4kt
ხილვადობა 9700m
ამინდი -
ღრუბლები Clouds and Visibility OK
წნევა 1032
ცვლილება No Significant change. Runway 12: Clear and dry, 1-10% contamination with <1mm, friction coefficient 0.70.
დაუმუშავებელი UUOO 250330Z 12002MPS CAVOK 11/M00 Q1032 R12/010070 NOSIG RMK QFE760

VFR

9°C / 3°C

[მეტი]
ქარი 130º 4kt
ხილვადობა 9700m
ამინდი -
ღრუბლები Clouds and Visibility OK
წნევა 1032
ცვლილება No Significant change. Runway 12: Clear and dry, 1-10% contamination with <1mm, friction coefficient 0.70.
დაუმუშავებელი UUOO 250300Z 13002MPS CAVOK 09/03 Q1032 R12/010070 NOSIG RMK QFE760

VFR

7°C / 0°C

[მეტი]
ქარი 120º 2kt
ხილვადობა 9700m
ამინდი -
ღრუბლები Clouds and Visibility OK
წნევა 1032
ცვლილება No Significant change. Runway 12: Clear and dry, 1-10% contamination with <1mm, friction coefficient 0.70.
დაუმუშავებელი UUOO 250230Z 12001MPS CAVOK 07/00 Q1032 R12/010070 NOSIG RMK QFE759

VFR

5°C / 1°C

[მეტი]
ქარი 140º 2kt
ხილვადობა 9700m
ამინდი -
ღრუბლები Clouds and Visibility OK
წნევა 1032
ცვლილება No Significant change. Runway 12: Clear and dry, 1-10% contamination with <1mm, friction coefficient 0.70.
დაუმუშავებელი UUOO 250200Z 14001MPS CAVOK 05/01 Q1032 R12/010070 NOSIG RMK QFE759

VFR

4°C / -1°C

[მეტი]
ქარი 130º 2kt
ხილვადობა 9700m
ამინდი -
ღრუბლები Clouds and Visibility OK
წნევა 1031
ცვლილება No Significant change. Runway 12: Clear and dry, 1-10% contamination with <1mm, friction coefficient 0.70.
დაუმუშავებელი UUOO 250130Z 13001MPS CAVOK 04/M01 Q1031 R12/010070 NOSIG RMK QFE759

VFR

5°C / -1°C

[მეტი]
ქარი 140º 2kt
ხილვადობა 9700m
ამინდი -
ღრუბლები Clouds and Visibility OK
წნევა 1031
ცვლილება No Significant change. Runway 12: Clear and dry, 1-10% contamination with <1mm, friction coefficient 0.70.
დაუმუშავებელი UUOO 250100Z 14001MPS CAVOK 05/M01 Q1031 R12/010070 NOSIG RMK QFE759

VFR

6°C / 0°C

[მეტი]
ქარი 120º 2kt
ხილვადობა 9700m
ამინდი -
ღრუბლები Clouds and Visibility OK
წნევა 1031
ცვლილება No Significant change. Runway 12: Clear and dry, 1-10% contamination with <1mm, friction coefficient 0.70.
დაუმუშავებელი UUOO 250030Z 12001MPS CAVOK 06/00 Q1031 R12/010070 NOSIG RMK QFE759

VFR

7°C / -1°C

[მეტი]
ქარი 130º 4kt
ხილვადობა 9700m
ამინდი -
ღრუბლები Clouds and Visibility OK
წნევა 1031
ცვლილება No Significant change. Runway 12: Clear and dry, 1-10% contamination with <1mm, friction coefficient 0.70.
დაუმუშავებელი UUOO 250000Z 13002MPS CAVOK 07/M01 Q1031 R12/010070 NOSIG RMK QFE759

TAF 51.82°ჩრ. 39.23°აღმ. (UUOO)-თვის

From till


From till Wind 130º 6kt. Visibility 9700m. Nil Significant Cloud.

დაუმუშავებელი: TAF UUOO 251100Z 2512/2521 13003MPS CAVOK

რადარის და ნალექების მაჩვენებელი 51.82°ჩრ. 39.23°აღმ. -თვის

გაწურეთ
Მსუბუქი
ზომიერი
Მძიმე
Ძალიან მძიმე
სეტყვა

მდებარეობის მარკერი მოთავსებულია 51.82°ჩრ. 39.23°აღმ. -ზე. ეს ანიმაცია აჩვენებს ნალექის რადარს არჩეული დროის დიაპაზონისთვის, ასევე 2h პროგნოზს. ნარინჯისფერი ჯვრები მიუთითებს ელვაზე. nowcast.de-ის მიერ მოწოდებული მონაცემები (ხელმისაწვდომია აშშ-ში, ევროპაში, ავსტრალიაში). წვიმა ან მსუბუქი თოვლი შეიძლება იყოს უხილავი რადარისთვის. ნალექის ინტენსივობა არის ფერადი კოდირებული, დაწყებული ფირუზისფერიდან წითამდე.

მიმდინარე სატელიტისა და წვიმის სურათები 51.82°ჩრ. 39.23°აღმ.-თვის

ლოკაციის მარკერი დაყენებყლია 51.82°ჩრ. 39.23°აღმ.ზე. [მეტი]

რეალურ დროში სატელიტური სურათი აერთიანებს ხილულ სინათლეს დღისით ღამის განმავლობაში ინფრაწითელ გამოსხივებასთან ერთად. ღამით, სურათი არ არის მუქი, რადგან ინფრაწითელ გამოსხივებას შეუძლია ტემპერატურის განსხვავებების დადგენა. სამწუხაროდ, დაბალი ღრუბლები და ნისლი ძნელია განასხვავონ მიწის ტემპერატურისგან და, შესაბამისად, ისინი შეიძლება თითქმის არ ჩანდეს ღამით. Meteosat სატელიტური გამოსახულება ევროპისთვის ახლდება რეალურ დროში ყოველ 5 წუთში. GOES-16/GOES-17 (ჩრდილოეთი და სამხრეთ ამერიკა) და ჰიმავარი (აზია) გამოსახულებები ახლდება ყოველ 10 წუთში.

ნალექი შეფასებულია რადარებიდან და თანამგზავრებიდან. სატელიტების ნალექის შეფასებები ღამით ნაკლებად ზუსტია, ვიდრე დღისით.

© 2024 meteoblue, NOAA Satellites GOES-16 and EUMETSAT. ელვის შესახებ მონაცემები მოწოდებული nowcast მიერ.

თავში დაბრუნება
×
გამარჯობა,
როგორც ჩანს, რეკლამის ბლოკერს იყენებთ.

რეკლამა აუცილებელია ჩვენი უფასო ვებსაიტის უნიკალური დეტალებითა და სიზუსტით შესანარჩუნებლად.

გთხოვთ თეთრი სია www.meteoblue.com თქვენს რეკლამის ბლოკერზე ან განიხილოთ ჩვენი ერთ-ერთი პროდუქტის შეძენა:

უკვე გაქვთ გამოწერა?
შემდეგ გთხოვთ შედით სისტემაში.